createdAt,value
2022-12-14T00:00:25.956Z,99537.06
2022-12-14T00:02:53.819Z,99537.91
2022-12-14T00:05:21.556Z,99540.59
2022-12-14T00:07:49.196Z,99530.84
2022-12-14T00:10:32.629Z,99525.47
2022-12-14T00:13:00.398Z,99520.91
2022-12-14T00:15:29.523Z,99529.81
2022-12-14T00:17:57.298Z,99525.47
2022-12-14T00:20:24.971Z,99529.81
2022-12-14T00:22:52.644Z,99543.28
2022-12-14T00:25:57.894Z,99544.09
2022-12-14T00:28:25.735Z,99552.41
2022-12-14T00:30:59.089Z,99552.41
2022-12-14T00:33:26.867Z,99534.59
2022-12-14T00:35:54.557Z,99524.88
2022-12-14T00:38:22.222Z,99528.41
2022-12-14T00:40:50.094Z,99528.63
2022-12-14T00:43:19.140Z,99525.94
2022-12-14T00:45:46.801Z,99531.31
2022-12-14T00:48:15.885Z,99527.81
2022-12-14T00:50:43.591Z,99516.22
2022-12-14T00:53:16.394Z,99516.22
2022-12-14T00:56:21.733Z,99518.91
2022-12-14T00:58:51.341Z,99511.84
2022-12-14T01:01:19.158Z,99504.03
2022-12-14T01:03:48.428Z,99506.47
2022-12-14T01:06:16.623Z,99501.34
2022-12-14T01:08:44.551Z,99503.22
2022-12-14T01:15:30.454Z,99489.50
2022-12-14T01:17:58.121Z,99482.25
2022-12-14T01:20:27.178Z,99476.03
2022-12-14T01:22:55.212Z,99484.94
2022-12-14T01:25:22.923Z,99475.84
2022-12-14T01:28:08.856Z,99475.84
2022-12-14T01:30:36.594Z,99473.13
2022-12-14T01:33:04.324Z,99471.47
2022-12-14T01:35:34.498Z,99463.41
2022-12-14T01:38:02.162Z,99468.22
2022-12-14T01:40:29.907Z,99459.28
2022-12-14T01:46:48.880Z,99449.78
2022-12-14T01:49:17.358Z,99439.03
2022-12-14T01:51:47.061Z,99438.19
2022-12-14T01:54:14.676Z,99427.41
2022-12-14T02:03:46.824Z,99415.00
2022-12-14T02:06:15.455Z,99417.69
2022-12-14T02:08:44.600Z,99417.91
2022-12-14T02:12:07.275Z,99414.19
2022-12-14T02:14:35.069Z,99409.84
2022-12-14T02:17:02.772Z,99410.91
2022-12-14T02:19:30.463Z,99392.06
2022-12-14T02:22:05.323Z,99393.94
2022-12-14T02:24:43.755Z,99389.38
2022-12-14T02:30:44.627Z,99398.84
2022-12-14T02:33:15.615Z,99389.97
2022-12-14T02:35:44.684Z,99387.28
2022-12-14T02:38:15.962Z,99389.97
2022-12-14T02:40:45.159Z,99396.38
2022-12-14T02:43:14.694Z,99384.78
2022-12-14T02:45:42.817Z,99386.69
2022-12-14T02:48:13.363Z,99383.97
2022-12-14T02:50:41.528Z,99386.69
2022-12-14T02:53:10.843Z,99383.97
2022-12-14T02:55:39.878Z,99381.50
2022-12-14T02:58:21.465Z,99369.94
2022-12-14T03:00:49.233Z,99369.94
2022-12-14T03:03:18.317Z,99356.47
2022-12-14T03:05:55.588Z,99352.13
2022-12-14T03:08:24.143Z,99361.25
2022-12-14T03:10:52.117Z,99376.59
2022-12-14T03:13:20.866Z,99376.59
2022-12-14T03:15:49.630Z,99376.59
2022-12-14T03:18:18.966Z,99378.47
2022-12-14T03:20:47.858Z,99378.47
2022-12-14T03:23:16.895Z,99374.94
2022-12-14T03:25:45.987Z,99368.72
2022-12-14T03:31:48.919Z,99365.00
2022-12-14T03:34:18.253Z,99366.63
2022-12-14T03:36:48.270Z,99352.13
2022-12-14T03:39:16.396Z,99360.22
2022-12-14T03:42:02.507Z,99352.13
2022-12-14T03:44:32.923Z,99351.28
2022-12-14T03:47:02.656Z,99352.13
2022-12-14T03:49:34.100Z,99363.13
2022-12-14T03:52:02.665Z,99365.00
2022-12-14T03:54:33.200Z,99364.19
2022-12-14T03:57:21.751Z,99379.50
2022-12-14T03:59:50.589Z,99380.53
2022-12-14T04:02:20.287Z,99377.84
2022-12-14T04:04:50.018Z,99378.91
2022-12-14T04:07:18.621Z,99385.94
2022-12-14T04:09:46.966Z,99383.47
2022-12-14T04:16:36.605Z,99374.56
2022-12-14T04:19:06.551Z,99371.06
2022-12-14T04:21:37.842Z,99371.88
2022-12-14T04:24:24.761Z,99367.56
2022-12-14T04:33:47.987Z,99357.25
2022-12-14T04:36:15.927Z,99351.88
2022-12-14T04:38:44.928Z,99358.88
2022-12-14T04:41:12.866Z,99357.00
2022-12-14T04:43:41.486Z,99362.16
2022-12-14T04:46:09.553Z,99362.16
2022-12-14T04:48:37.491Z,99352.47
2022-12-14T04:51:06.868Z,99351.41
2022-12-14T04:53:34.850Z,99353.03
2022-12-14T04:56:05.953Z,99352.22
2022-12-14T04:58:33.601Z,99356.78
2022-12-14T05:01:05.738Z,99349.78
2022-12-14T05:03:34.267Z,99342.72
2022-12-14T05:06:06.355Z,99334.66
2022-12-14T05:08:38.818Z,99336.53
2022-12-14T05:11:49.745Z,99327.03
2022-12-14T05:17:57.926Z,99305.50
2022-12-14T05:20:25.647Z,99296.84
2022-12-14T05:22:53.259Z,99298.50
2022-12-14T05:25:20.942Z,99292.28
2022-12-14T05:31:22.480Z,99286.06
2022-12-14T05:33:50.130Z,99288.16
2022-12-14T05:36:18.823Z,99281.75
2022-12-14T05:38:46.661Z,99293.56
2022-12-14T05:41:14.363Z,99304.31
2022-12-14T05:43:42.079Z,99303.50
2022-12-14T05:46:11.498Z,99304.31
2022-12-14T05:48:43.665Z,99307.00
2022-12-14T05:51:13.835Z,99297.09
2022-12-14T05:53:41.568Z,99303.28
2022-12-14T05:56:09.823Z,99301.41
2022-12-14T05:58:37.623Z,99301.41
2022-12-14T06:01:06.626Z,99309.25
2022-12-14T06:03:34.332Z,99292.88
2022-12-14T06:06:03.923Z,99298.50
2022-12-14T06:08:34.613Z,99305.50
2022-12-14T06:11:02.930Z,99305.50
2022-12-14T06:13:30.786Z,99294.75
2022-12-14T06:16:07.718Z,99292.06
2022-12-14T06:18:35.571Z,99292.06
2022-12-14T06:21:04.703Z,99299.06
2022-12-14T06:23:32.407Z,99303.41
2022-12-14T06:26:00.043Z,99292.66
2022-12-14T06:32:18.215Z,99286.22
2022-12-14T06:34:45.835Z,99286.47
2022-12-14T06:37:14.810Z,99281.88
2022-12-14T06:39:42.421Z,99284.59
2022-12-14T06:45:34.293Z,99288.91
2022-12-14T06:48:01.987Z,99300.47
2022-12-14T06:50:29.876Z,99285.19
2022-12-14T06:52:58.940Z,99285.19
2022-12-14T06:55:26.730Z,99288.44
2022-12-14T06:57:54.357Z,99278.53
2022-12-14T07:00:22.614Z,99273.94
2022-12-14T07:02:50.955Z,99279.34
2022-12-14T07:05:18.748Z,99274.75
2022-12-14T07:07:46.452Z,99280.16
2022-12-14T07:10:15.643Z,99280.97
2022-12-14T07:16:05.289Z,99275.56
2022-12-14T07:18:33.522Z,99275.56
2022-12-14T07:21:01.965Z,99271.81
2022-12-14T07:23:30.357Z,99275.56
2022-12-14T07:26:03.447Z,99291.72
2022-12-14T07:28:31.112Z,99286.34
2022-12-14T07:30:58.927Z,99289.03
2022-12-14T07:33:27.379Z,99286.34
2022-12-14T07:36:02.083Z,99297.94
2022-12-14T07:38:29.676Z,99293.34
2022-12-14T07:41:03.641Z,99297.13
2022-12-14T07:43:38.364Z,99297.13
2022-12-14T07:46:06.434Z,99297.13
2022-12-14T07:48:34.210Z,99298.75
2022-12-14T07:51:05.252Z,99298.75
2022-12-14T07:53:32.928Z,99287.97
2022-12-14T07:56:05.887Z,99296.03
2022-12-14T07:58:33.687Z,99295.03
2022-12-14T08:01:11.554Z,99303.31
2022-12-14T08:03:39.619Z,99303.31
2022-12-14T08:06:07.570Z,99297.94
2022-12-14T08:08:35.296Z,99296.03
2022-12-14T08:11:03.021Z,99293.34
2022-12-14T08:13:33.618Z,99289.84
2022-12-14T08:16:03.742Z,99279.91
2022-12-14T08:18:31.669Z,99282.84
2022-12-14T08:20:59.739Z,99277.47
2022-12-14T08:23:27.781Z,99277.22
2022-12-14T08:25:56.109Z,99280.97
2022-12-14T08:31:46.988Z,99293.34
2022-12-14T08:34:16.306Z,99300.41
2022-12-14T08:36:43.942Z,99288.81
2022-12-14T08:39:11.619Z,99293.34
2022-12-14T08:41:39.235Z,99285.28
2022-12-14T08:47:40.526Z,99273.47
2022-12-14T08:50:08.842Z,99254.66
2022-12-14T08:52:36.475Z,99261.66
2022-12-14T08:55:04.660Z,99258.97
2022-12-14T08:57:51.097Z,99263.31
2022-12-14T09:00:19.951Z,99262.25
2022-12-14T09:02:51.656Z,99255.00
2022-12-14T09:05:19.693Z,99257.69
2022-12-14T09:07:47.357Z,99263.06
2022-12-14T09:10:16.408Z,99256.88
2022-12-14T09:12:53.461Z,99241.78
2022-12-14T09:15:21.662Z,99223.75
2022-12-14T09:17:51.260Z,99211.31
2022-12-14T09:20:19.393Z,99222.09
2022-12-14T09:22:47.030Z,99218.59
2022-12-14T09:25:15.271Z,99220.69
2022-12-14T09:27:58.105Z,99223.63
2022-12-14T09:30:27.142Z,99225.50
2022-12-14T09:32:56.361Z,99225.50
2022-12-14T09:35:24.125Z,99223.84
2022-12-14T09:37:52.231Z,99211.44
2022-12-14T09:40:20.600Z,99204.44
2022-12-14T09:43:38.105Z,99189.31
2022-12-14T09:46:09.767Z,99189.31
2022-12-14T09:48:38.852Z,99175.88
2022-12-14T09:51:06.855Z,99168.03
2022-12-14T09:53:34.582Z,99167.19
2022-12-14T09:56:02.735Z,99163.47
2022-12-14T10:02:28.963Z,99165.56
2022-12-14T10:04:48.561Z,99160.19
2022-12-14T10:07:18.121Z,99181.72
2022-12-14T10:09:48.477Z,99179.63
2022-12-14T10:12:20.924Z,99172.59
2022-12-14T10:15:04.491Z,99183.94
2022-12-14T10:17:35.017Z,99175.88
2022-12-14T10:20:06.442Z,99175.06
2022-12-14T10:22:35.463Z,99175.06
2022-12-14T10:25:06.183Z,99177.97
2022-12-14T10:28:01.078Z,99160.19
2022-12-14T10:30:22.930Z,99154.22
2022-12-14T10:32:52.368Z,99149.91
2022-12-14T10:35:22.086Z,99148.25
2022-12-14T10:37:50.344Z,99147.44
2022-12-14T10:40:33.000Z,99140.41
2022-12-14T10:43:04.561Z,99139.59
2022-12-14T10:45:41.475Z,99139.59
2022-12-14T10:48:15.010Z,99144.13
2022-12-14T10:50:50.228Z,99139.59
2022-12-14T10:53:18.743Z,99142.50
2022-12-14T10:55:46.708Z,99140.06
2022-12-14T10:58:20.431Z,99140.88
2022-12-14T11:00:51.708Z,99126.63
2022-12-14T11:03:19.495Z,99130.13
2022-12-14T11:05:50.950Z,99127.66
2022-12-14T11:08:34.128Z,99124.97
2022-12-14T11:11:08.171Z,99121.81
2022-12-14T11:13:54.463Z,99113.72
2022-12-14T11:16:31.874Z,99116.41
2022-12-14T11:19:02.676Z,99124.28
2022-12-14T11:21:32.637Z,99107.31
2022-12-14T11:24:00.615Z,99100.88
2022-12-14T11:26:30.407Z,99091.38
2022-12-14T11:29:37.952Z,99094.91
2022-12-14T11:32:06.315Z,99088.94
2022-12-14T11:34:34.751Z,99083.78
2022-12-14T11:37:14.550Z,99073.25
2022-12-14T11:39:42.800Z,99066.03
2022-12-14T11:42:15.536Z,99060.88
2022-12-14T11:45:19.439Z,99057.34
2022-12-14T11:47:47.099Z,99058.97
2022-12-14T11:50:23.733Z,99059.25
2022-12-14T11:52:52.816Z,99050.31
2022-12-14T11:55:26.491Z,99055.69
2022-12-14T11:57:55.035Z,99050.31
2022-12-14T12:03:55.747Z,99065.91
2022-12-14T12:06:24.187Z,99059.47
2022-12-14T12:08:56.393Z,99047.06
2022-12-14T12:11:25.356Z,99031.75
2022-12-14T12:13:53.524Z,99020.72
2022-12-14T12:16:22.756Z,99017.00
2022-12-14T12:18:52.279Z,99015.94
2022-12-14T12:21:21.214Z,99008.69
2022-12-14T12:23:50.366Z,99001.44
2022-12-14T12:26:21.071Z,99003.88
2022-12-14T12:29:08.901Z,99013.63
2022-12-14T12:31:39.617Z,98999.56
2022-12-14T12:34:11.982Z,98999.56
2022-12-14T12:36:56.885Z,98995.22
2022-12-14T12:39:28.039Z,98993.59
2022-12-14T12:42:05.233Z,98990.91
2022-12-14T12:47:56.586Z,99000.28
2022-12-14T12:50:25.657Z,99000.28
2022-12-14T12:53:02.373Z,98999.47
2022-12-14T12:55:31.066Z,98995.97
2022-12-14T12:58:00.938Z,98987.88
2022-12-14T13:04:37.611Z,98980.03
2022-12-14T13:07:06.968Z,98974.66
2022-12-14T13:09:37.456Z,98978.41
2022-12-14T13:12:06.307Z,98981.09
2022-12-14T13:14:53.872Z,98984.81
2022-12-14T13:17:27.258Z,98971.38
2022-12-14T13:19:55.984Z,98975.47
2022-12-14T13:22:27.295Z,98970.91
2022-12-14T13:24:59.231Z,98963.41
2022-12-14T13:27:37.995Z,98956.16
2022-12-14T13:40:50.748Z,98970.09
2022-12-14T13:43:24.700Z,98991.28
2022-12-14T13:52:58.342Z,98990.47
2022-12-14T13:55:27.974Z,98984.28
2022-12-14T13:57:56.856Z,98977.22
2022-12-14T14:03:52.883Z,98981.81
2022-12-14T14:06:25.272Z,98992.56
2022-12-14T14:08:52.995Z,98991.75
2022-12-14T14:11:40.173Z,98971.25
2022-12-14T14:14:12.033Z,98967.75
2022-12-14T14:16:40.949Z,98942.53
2022-12-14T14:19:16.998Z,98949.75
2022-12-14T14:22:14.330Z,98935.47
2022-12-14T14:24:38.774Z,98943.81
2022-12-14T14:27:11.456Z,98939.25
2022-12-14T14:29:39.377Z,98944.38
2022-12-14T14:32:08.094Z,98947.06
2022-12-14T14:34:38.839Z,98955.97
2022-12-14T14:37:17.113Z,98968.13
2022-12-14T14:39:57.787Z,98975.34
2022-12-14T14:42:29.720Z,98972.66
2022-12-14T14:44:58.166Z,98973.50
2022-12-14T14:47:27.536Z,98971.03
2022-12-14T14:49:57.209Z,98975.59
2022-12-14T14:52:44.783Z,98973.94
2022-12-14T14:58:27.039Z,98969.03
2022-12-14T15:04:28.610Z,98980.63
2022-12-14T15:06:59.898Z,98986.84
2022-12-14T15:09:28.508Z,98992.66
2022-12-14T15:11:59.603Z,98978.19
2022-12-14T15:17:50.871Z,98981.91
2022-12-14T15:20:23.263Z,98974.91
2022-12-14T15:22:53.043Z,98969.53
2022-12-14T15:25:21.794Z,98975.72
2022-12-14T15:27:50.083Z,98976.78
2022-12-14T15:37:16.943Z,98950.09
2022-12-14T15:39:46.123Z,98946.38
2022-12-14T15:42:15.719Z,98937.25
2022-12-14T15:48:15.954Z,98930.59
2022-12-14T15:50:44.374Z,98921.69
2022-12-14T15:53:15.904Z,98922.72
2022-12-14T15:55:44.897Z,98916.53
2022-12-14T15:58:16.378Z,98924.88
2022-12-14T16:04:22.800Z,98920.53
2022-12-14T16:06:51.463Z,98914.56
2022-12-14T16:09:21.778Z,98918.91
2022-12-14T16:11:51.207Z,98925.31
2022-12-14T16:14:21.089Z,98919.94
2022-12-14T16:16:48.890Z,98913.75
2022-12-14T16:19:27.291Z,98912.94
2022-12-14T16:22:06.294Z,98903.25
2022-12-14T16:24:34.732Z,98894.34
2022-12-14T16:27:03.801Z,98888.13
2022-12-14T16:29:33.076Z,98893.50
2022-12-14T16:32:01.273Z,98898.91
2022-12-14T16:34:30.925Z,98904.28
2022-12-14T16:37:31.155Z,98892.72
2022-12-14T16:39:48.959Z,98889.19
2022-12-14T16:42:18.955Z,98894.34
2022-12-14T16:48:59.359Z,98875.28
2022-12-14T16:51:58.105Z,98875.28
2022-12-14T16:54:22.939Z,98873.19
2022-12-14T16:56:50.661Z,98883.13
2022-12-14T16:59:23.313Z,98867.78
2022-12-14T17:01:51.137Z,98883.94
2022-12-14T17:04:19.844Z,98878.56
2022-12-14T17:06:48.009Z,98887.66
2022-12-14T17:09:20.315Z,98877.97
2022-12-14T17:11:48.266Z,98874.47
2022-12-14T17:14:16.755Z,98877.38
2022-12-14T17:16:45.870Z,98872.00
2022-12-14T17:19:17.865Z,98871.19
2022-12-14T17:21:46.159Z,98873.06
2022-12-14T17:24:15.835Z,98859.63
2022-12-14T17:26:43.498Z,98848.88
2022-12-14T17:29:16.005Z,98854.25
2022-12-14T17:31:49.716Z,98852.63
2022-12-14T17:34:18.603Z,98848.06
2022-12-14T17:36:46.296Z,98850.97
2022-12-14T17:39:15.093Z,98846.66
2022-12-14T17:41:43.127Z,98842.09
2022-12-14T17:44:14.287Z,98848.53
2022-12-14T17:46:42.028Z,98843.97
2022-12-14T17:49:16.129Z,98834.03
2022-12-14T17:51:44.137Z,98842.31
2022-12-14T17:54:16.048Z,98850.97
2022-12-14T17:56:43.721Z,98827.34
2022-12-14T17:59:12.063Z,98835.41
2022-12-14T18:01:39.876Z,98830.03
2022-12-14T18:04:08.797Z,98834.34
2022-12-14T18:06:37.896Z,98831.66
2022-12-14T18:09:08.624Z,98828.16
2022-12-14T18:11:39.154Z,98830.63
2022-12-14T18:14:16.059Z,98817.66
2022-12-14T18:17:20.871Z,98823.03
2022-12-14T18:19:49.493Z,98829.47
2022-12-14T18:22:19.567Z,98833.22
2022-12-14T18:24:49.320Z,98823.25
2022-12-14T18:27:17.090Z,98818.69
2022-12-14T18:29:45.566Z,98800.94
2022-12-14T18:32:39.164Z,98816.28
2022-12-14T18:35:08.171Z,98813.81
2022-12-14T18:37:37.557Z,98803.03
2022-12-14T18:40:08.126Z,98811.13
2022-12-14T18:42:36.490Z,98813.81
2022-12-14T18:45:07.197Z,98808.44
2022-12-14T18:47:41.810Z,98799.28
2022-12-14T18:50:11.088Z,98808.44
2022-12-14T18:52:40.136Z,98803.03
2022-12-14T18:55:09.181Z,98803.03
2022-12-14T18:57:36.896Z,98796.03
2022-12-14T19:00:06.195Z,98793.34
2022-12-14T19:02:34.011Z,98787.72
2022-12-14T19:05:02.589Z,98772.19
2022-12-14T19:07:30.239Z,98785.94
2022-12-14T19:10:00.082Z,98781.41
2022-12-14T19:12:27.771Z,98787.59
2022-12-14T19:14:56.099Z,98791.91
2022-12-14T19:20:49.358Z,98765.59
2022-12-14T19:23:17.600Z,98782.56
2022-12-14T19:25:47.477Z,98772.88
2022-12-14T19:28:32.927Z,98794.13
2022-12-14T19:31:02.277Z,98794.38
2022-12-14T19:33:30.270Z,98789.81
2022-12-14T19:35:59.308Z,98787.13
2022-12-14T19:38:28.422Z,98789.56
2022-12-14T19:41:02.166Z,98794.13
2022-12-14T19:43:30.382Z,98785.00
2022-12-14T19:49:31.247Z,98779.63
2022-12-14T19:51:58.923Z,98788.50
2022-12-14T19:54:27.564Z,98781.25
2022-12-14T19:56:56.560Z,98785.81
2022-12-14T19:59:25.335Z,98786.63
2022-12-14T20:08:49.785Z,98791.19
2022-12-14T20:11:18.198Z,98799.00
2022-12-14T20:13:49.449Z,98799.84
2022-12-14T20:23:28.537Z,98802.88
2022-12-14T20:26:02.221Z,98796.44
2022-12-14T20:28:29.891Z,98797.50
2022-12-14T20:31:35.814Z,98794.81
2022-12-14T20:34:05.510Z,98799.38
2022-12-14T20:36:33.987Z,98795.03
2022-12-14T20:39:02.473Z,98791.06
2022-12-14T20:41:30.838Z,98789.44
2022-12-14T20:43:58.470Z,98794.81
2022-12-14T20:50:20.536Z,98796.44
2022-12-14T20:52:49.211Z,98801.00
2022-12-14T20:55:19.018Z,98794.00
2022-12-14T20:57:47.464Z,98806.38
2022-12-14T21:00:16.816Z,98809.06
2022-12-14T21:03:21.895Z,98808.25
2022-12-14T21:05:51.860Z,98816.31
2022-12-14T21:08:19.579Z,98823.31
2022-12-14T21:10:48.207Z,98820.63
2022-12-14T21:13:14.922Z,98830.34
2022-12-14T21:15:48.232Z,98828.72
2022-12-14T21:18:16.677Z,98835.72
2022-12-14T21:20:46.228Z,98835.47
2022-12-14T21:23:19.238Z,98831.97
2022-12-14T21:25:49.299Z,98828.25
2022-12-14T21:28:16.943Z,98825.31
2022-12-14T21:30:45.356Z,98833.38
2022-12-14T21:33:12.978Z,98844.94
2022-12-14T21:35:41.914Z,98826.13
2022-12-14T21:38:09.577Z,98836.88
2022-12-14T21:40:56.907Z,98819.13
2022-12-14T21:43:24.551Z,98824.50
2022-12-14T21:45:53.051Z,98821.81
2022-12-14T21:48:20.832Z,98822.63
2022-12-14T21:50:50.200Z,98830.69
2022-12-14T21:53:17.880Z,98827.19
2022-12-14T21:55:51.449Z,98828.81
2022-12-14T21:58:18.148Z,98829.88
2022-12-14T22:00:45.875Z,98835.25
2022-12-14T22:03:14.845Z,98830.94
2022-12-14T22:05:42.551Z,98835.47
2022-12-14T22:08:11.287Z,98835.72
2022-12-14T22:10:38.861Z,98830.34
2022-12-14T22:13:09.293Z,98834.94
2022-12-14T22:15:36.972Z,98817.94
2022-12-14T22:21:38.585Z,98826.28
2022-12-14T22:24:06.729Z,98833.53
2022-12-14T22:26:35.832Z,98830.84
2022-12-14T22:29:04.939Z,98840.75
2022-12-14T22:31:35.258Z,98843.22
2022-12-14T22:34:03.009Z,98848.59
2022-12-14T22:36:31.307Z,98856.44
2022-12-14T22:38:59.075Z,98855.59
2022-12-14T22:41:27.511Z,98855.59
2022-12-14T22:43:56.493Z,98870.13
2022-12-14T22:46:38.497Z,98880.88
2022-12-14T22:49:06.156Z,98883.56
2022-12-14T22:51:34.495Z,98887.31
2022-12-14T22:54:02.141Z,98878.66
2022-12-14T22:56:30.999Z,98875.97
2022-12-14T22:58:59.478Z,98875.97
2022-12-14T23:01:28.382Z,98874.31
2022-12-14T23:03:57.524Z,98873.50
2022-12-14T23:06:25.755Z,98865.44
2022-12-14T23:09:10.684Z,98871.88
2022-12-14T23:11:55.925Z,98875.63
2022-12-14T23:14:41.048Z,98875.63
2022-12-14T23:17:26.207Z,98872.13
2022-12-14T23:20:13.083Z,98874.00
2022-12-14T23:22:58.017Z,98874.00
2022-12-14T23:25:43.059Z,98870.50
2022-12-14T23:28:28.103Z,98886.63
2022-12-14T23:31:14.551Z,98884.97
2022-12-14T23:34:00.078Z,98884.16
2022-12-14T23:36:46.912Z,98882.06
2022-12-14T23:39:33.386Z,98888.25
2022-12-14T23:42:18.490Z,98874.81
2022-12-14T23:45:03.326Z,98864.03
2022-12-14T23:51:39.281Z,98876.44
2022-12-14T23:54:26.028Z,98873.75
2022-12-14T23:57:11.031Z,98878.56
2022-12-14T23:59:55.950Z,98877.75
